Darstellungsparameter: Aktuell verwendete Einstellungen:
Skalierung der Graphiken ... ?
xyx+y,   Skalierungsfaktor:      Skalierung: Modus: x, Faktor: 1
Darstellungszeitraum ... ?
Vom - - bis: - -   Zeitraum: 01.01.2007 - 31.12.2007
Min/Max/Avg-Anzeige ... ?
Zeige MMA aktuell
Zeige MMA Monat
Zeige MMA alles
Zeige --A aktuell
Zeige --A Monat
Zeige --A alles
Keine MMA-Anzeige
MMA:
Keine MMA-Graphiken
MMA-Basis: 01.01.2007 - 31.12.2007
Quicknavigation für Darstellung... ?
Tage:      1T, 2T, 3T, 5T -1T -2T -3T -5T +1T +2T +3T +5T
Wochen: 1W, 2W, 3W -1W -2W -3W +1W +2W +3W
Monate: 1M, 3M, 6M -1M -3M -6M +1M +3M +6M
Jahre:    1J, 3J, 5J, 10J -1J -3J -5J -10J +1J +3J +5J +10J
Nutze für die Darstellung ... ?
Originaldaten oder ...
Mittelwerte Minima Maxima auf...
Stundenbasis Tagesbasis Wochenbasis
Monatsbasis Jahresbasis      Datenbasis: Mittelwerte auf Tagesbasis
Darstellen als:
Statistik (Auto) Statistik J:M      Darstellung:
Zur Graphik,    zurück zur Übersicht aller Sensoren.
 
Tabellarische Datenbersicht: ?
 
Sensor: Nr:Datum:Temp:Abs-Feuchte:Windchill:Wind:
Aussen-T/F 1 01-01-2007 00:00:00 7.99664 C 5.44 g/m*3 8 C 0 km/h
2 02-01-2007 00:00:00 4.33083 C 4.79 g/m*3 4.33 C 0 km/h
3 03-01-2007 00:00:00 5.63417 C 5.28 g/m*3 5.63 C 0 km/h
4 04-01-2007 00:00:00 7.7525 C 5.33 g/m*3 7.75 C 0 km/h
5 05-01-2007 00:00:00 8.08667 C 5.69 g/m*3 8.09 C 0 km/h
6 06-01-2007 00:00:00 10.50333 C 7.18 g/m*3 10.5 C 0 km/h
7 07-01-2007 00:00:00 8.5725 C 5.21 g/m*3 8.57 C 0 km/h
8 08-01-2007 00:00:00 9.32667 C 5.75 g/m*3 9.33 C 0 km/h
9 09-01-2007 00:00:00 13.04333 C 7.07 g/m*3 13.04 C 0 km/h
10 10-01-2007 00:00:00 11.54333 C 5.64 g/m*3 11.54 C 0 km/h
11 11-01-2007 00:00:00 7.61933 C 4.64 g/m*3 7.62 C 0 km/h
12 12-01-2007 00:00:00 9.0325 C 4.92 g/m*3 9.03 C 0 km/h
13 13-01-2007 00:00:00 11.8175 C 6.14 g/m*3 11.82 C 0 km/h
14 14-01-2007 00:00:00 7.55833 C 4.65 g/m*3 7.56 C 0 km/h
15 15-01-2007 00:00:00 0.8725 C 4.34 g/m*3 0.87 C 0 km/h
16 16-01-2007 00:00:00 5.06583 C 4.9 g/m*3 5.07 C 0 km/h
17 17-01-2007 00:00:00 10.18333 C 6.05 g/m*3 10.18 C 0 km/h
18 18-01-2007 00:00:00 12.41833 C 7.26 g/m*3 12.42 C 0 km/h
19 19-01-2007 00:00:00 10.36667 C 6.21 g/m*3 10.37 C 0 km/h
20 20-01-2007 00:00:00 11.68917 C 6.43 g/m*3 11.69 C 0 km/h
21 21-01-2007 00:00:00 6.88167 C 3.9 g/m*3 6.88 C 0 km/h
22 22-01-2007 00:00:00 4.26167 C 3.78 g/m*3 4.26 C 0 km/h
23 23-01-2007 00:00:00 -1.075 C 1.21 g/m*3 -1.08 C 0 km/h
24 24-01-2007 00:00:00 -2.97 C 1.85 g/m*3 -2.97 C 0 km/h
25 25-01-2007 00:00:00 -3.4825 C 2.25 g/m*3 -3.48 C 0 km/h
Sensor: Nr:Datum:Temp:Abs-Feuchte:Windchill:Wind:
Aussen-T/F 26 26-01-2007 00:00:00 -3.23083 C 2.24 g/m*3 -3.23 C 0 km/h
27 27-01-2007 00:00:00 2.77 C 3.92 g/m*3 2.77 C 0 km/h
28 28-01-2007 00:00:00 4.49917 C 4.21 g/m*3 4.5 C 0 km/h
29 29-01-2007 00:00:00 7.0175 C 5.25 g/m*3 7.02 C 0 km/h
30 30-01-2007 00:00:00 6.84917 C 5.2 g/m*3 6.85 C 0 km/h
31 31-01-2007 00:00:00 6.82583 C 4.18 g/m*3 6.83 C 0 km/h
32 01-02-2007 00:00:00 7.76667 C 5.68 g/m*3 7.77 C 0 km/h
33 02-02-2007 00:00:00 8.26583 C 6.84 g/m*3 8.27 C 0 km/h
34 03-02-2007 00:00:00 6.285 C 4.67 g/m*3 6.29 C 0 km/h
35 04-02-2007 00:00:00 5.90667 C 4.74 g/m*3 5.91 C 0 km/h
36 05-02-2007 00:00:00 2.19664 C 4.27 g/m*3 2.2 C 0 km/h
37 06-02-2007 00:00:00 3.33417 C 4.06 g/m*3 3.33 C 0 km/h
38 07-02-2007 00:00:00 1.63417 C 4.12 g/m*3 1.63 C 0 km/h
39 08-02-2007 00:00:00 2.62167 C 4.23 g/m*3 2.62 C 0 km/h
40 09-02-2007 00:00:00 5.79167 C 3.84 g/m*3 5.79 C 0 km/h
41 10-02-2007 00:00:00 5.48667 C 5.34 g/m*3 5.49 C 0 km/h
42 11-02-2007 00:00:00 7.70667 C 5.71 g/m*3 7.71 C 0 km/h
43 12-02-2007 00:00:00 8.33083 C 5.62 g/m*3 8.33 C 0 km/h
44 13-02-2007 00:00:00 7.8175 C 4.79 g/m*3 7.82 C 0 km/h
45 14-02-2007 00:00:00 5.82083 C 5.14 g/m*3 5.82 C 0 km/h
46 15-02-2007 00:00:00 7.37917 C 4.4 g/m*3 7.38 C 0 km/h
47 16-02-2007 00:00:00 4.61583 C 4.23 g/m*3 4.62 C 0 km/h
48 17-02-2007 00:00:00 4.92083 C 3.9 g/m*3 4.92 C 0 km/h
49 18-02-2007 00:00:00 3.4775 C 4.32 g/m*3 3.48 C 0 km/h
50 19-02-2007 00:00:00 5.4675 C 4.34 g/m*3 5.47 C 0 km/h
Sensor: Nr:Datum:Temp:Abs-Feuchte:Windchill:Wind:
Aussen-T/F 51 20-02-2007 00:00:00 7.09583 C 4.63 g/m*3 7.1 C 0 km/h
52 21-02-2007 00:00:00 5.63083 C 4.98 g/m*3 5.63 C 0 km/h
53 22-02-2007 00:00:00 7.10583 C 5.19 g/m*3 7.11 C 0 km/h
54 23-02-2007 00:00:00 9.02333 C 5.53 g/m*3 9.02 C 0 km/h
55 24-02-2007 00:00:00 8.47917 C 6.6 g/m*3 8.48 C 0 km/h
56 25-02-2007 00:00:00 7.975 C 5.55 g/m*3 7.98 C 0 km/h
57 26-02-2007 00:00:00 6.53667 C 5.43 g/m*3 6.54 C 0 km/h
58 27-02-2007 00:00:00 6.38333 C 4.96 g/m*3 6.38 C 0 km/h
59 28-02-2007 00:00:00 10.44667 C 5.35 g/m*3 10.45 C 0 km/h
60 01-03-2007 00:00:00 9.04667 C 5.11 g/m*3 9.05 C 0 km/h
61 02-03-2007 00:00:00 6.77917 C 3.71 g/m*3 6.78 C 0 km/h
62 03-03-2007 00:00:00 6.66639 C 4.88 g/m*3 6.67 C 0 km/h
63 04-03-2007 00:00:00 7.69833 C 4.83 g/m*3 7.7 C 0 km/h
64 05-03-2007 00:00:00 10.24667 C 4.19 g/m*3 10.25 C 0 km/h
65 06-03-2007 00:00:00 9.76083 C 4.14 g/m*3 9.76 C 0 km/h
66 07-03-2007 00:00:00 9.16417 C 4.96 g/m*3 9.16 C 0 km/h
67 08-03-2007 00:00:00 7.035 C 4.54 g/m*3 7.04 C 0 km/h
68 09-03-2007 00:00:00 6.3175 C 4.84 g/m*3 6.32 C 0 km/h
69 10-03-2007 00:00:00 7.155 C 4.37 g/m*3 7.16 C 0 km/h
70 11-03-2007 00:00:00 7.3175 C 4.45 g/m*3 7.32 C 0 km/h
71 12-03-2007 00:00:00 8.52833 C 4.75 g/m*3 8.53 C 0 km/h
72 13-03-2007 00:00:00 9.0475 C 5.4 g/m*3 9.05 C 0 km/h
73 14-03-2007 00:00:00 10.57395 C 5.78 g/m*3 10.57 C 0 km/h
74 15-03-2007 00:00:00 8.44333 C 5.18 g/m*3 8.44 C 0 km/h
75 16-03-2007 00:00:00 7.8175 C 5.18 g/m*3 7.82 C 0 km/h
Sensor: Nr:Datum:Temp:Abs-Feuchte:Windchill:Wind:
Aussen-T/F 76 17-03-2007 00:00:00 8.70833 C 6.38 g/m*3 8.71 C 0 km/h
77 18-03-2007 00:00:00 7.715 C 5.51 g/m*3 7.72 C 0 km/h
78 19-03-2007 00:00:00 4.56333 C 4 g/m*3 4.56 C 0 km/h
79 20-03-2007 00:00:00 4.1325 C 4.47 g/m*3 4.13 C 0 km/h
80 21-03-2007 00:00:00 4.47417 C 4.53 g/m*3 4.47 C 0 km/h
81 22-03-2007 00:00:00 2.25667 C 5.17 g/m*3 2.26 C 0 km/h
82 23-03-2007 00:00:00 3.37333 C 5.31 g/m*3 3.37 C 0 km/h
83 24-03-2007 00:00:00 5.37333 C 6.27 g/m*3 5.37 C 0 km/h
84 25-03-2007 00:00:00 8.58101 C 5.72 g/m*3 8.58 C 0 km/h
85 26-03-2007 00:00:00 14.9957 C 4.93 g/m*3 15 C 0 km/h
86 27-03-2007 00:00:00 11.65 C 4.69 g/m*3 11.65 C 0 km/h
87 28-03-2007 00:00:00 11.65313 C 4.21 g/m*3 11.65 C 0 km/h
88 29-03-2007 00:00:00 9.75 C 5.52 g/m*3 9.75 C 0 km/h
89 30-03-2007 00:00:00 10.73785 C 6.65 g/m*3 10.74 C 0 km/h
90 31-03-2007 00:00:00 10.49618 C 6.1 g/m*3 10.5 C 0 km/h
91 01-04-2007 00:00:00 13.71707 C 4.51 g/m*3 13.72 C 0 km/h
92 02-04-2007 00:00:00 13.59583 C 4.59 g/m*3 13.6 C 0 km/h
93 03-04-2007 00:00:00 8.94861 C 4.81 g/m*3 8.95 C 0 km/h
94 04-04-2007 00:00:00 9.66076 C 3.85 g/m*3 9.66 C 0 km/h
95 05-04-2007 00:00:00 8.81528 C 4.24 g/m*3 8.82 C 0 km/h
96 06-04-2007 00:00:00 12.12431 C 6.2 g/m*3 12.12 C 0 km/h
97 07-04-2007 00:00:00 9.61533 C 5.4 g/m*3 9.62 C 0 km/h
98 08-04-2007 00:00:00 9.79306 C 5.37 g/m*3 9.79 C 0 km/h
99 09-04-2007 00:00:00 11.52465 C 5.47 g/m*3 11.52 C 0 km/h
100 10-04-2007 00:00:00 11.94688 C 6.26 g/m*3 11.95 C 0 km/h
Sensor: Nr:Datum:Temp:Abs-Feuchte:Windchill:Wind:
Aussen-T/F 101 11-04-2007 00:00:00 10.93697 C 6.87 g/m*3 10.94 C 0 km/h
102 12-04-2007 00:00:00 16.75 C 7.24 g/m*3 16.75 C 0 km/h
103 13-04-2007 00:00:00 19.17708 C 8 g/m*3 19.18 C 0 km/h
104 14-04-2007 00:00:00 21.16042 C 7.77 g/m*3 21.16 C 0 km/h
105 15-04-2007 00:00:00 20.80833 C 7.27 g/m*3 20.81 C 0 km/h
106 16-04-2007 00:00:00 19.4375 C 6.62 g/m*3 19.44 C 0 km/h
107 17-04-2007 00:00:00 14.74271 C 6.57 g/m*3 14.74 C 0 km/h
108 18-04-2007 00:00:00 11.07188 C 4.76 g/m*3 11.07 C 0 km/h
109 19-04-2007 00:00:00 11.67188 C 5.25 g/m*3 11.67 C 0 km/h
110 20-04-2007 00:00:00 12.26458 C 4.91 g/m*3 12.26 C 0 km/h
111 21-04-2007 00:00:00 11.89271 C 4.5 g/m*3 11.89 C 0 km/h
112 22-04-2007 00:00:00 15.65729 C 5.54 g/m*3 15.66 C 0 km/h
113 23-04-2007 00:00:00 17.48021 C 6.48 g/m*3 17.48 C 0 km/h
114 24-04-2007 00:00:00 20.85102 C 8.12 g/m*3 20.85 C 0 km/h
115 25-04-2007 00:00:00 22.135 C 8.68 g/m*3 22.14 C 0 km/h
116 26-04-2007 00:00:00 21.16 C 7.81 g/m*3 21.16 C 0 km/h
117 27-04-2007 00:00:00 20.46303 C 7.42 g/m*3 20.46 C 0 km/h
118 28-04-2007 00:00:00 20.92083 C 7.71 g/m*3 20.92 C 0 km/h
119 29-04-2007 00:00:00 19.75583 C 7.1 g/m*3 19.76 C 0 km/h
120 30-04-2007 00:00:00 16.78917 C 4.21 g/m*3 16.79 C 0 km/h
121 01-05-2007 00:00:00 16.47083 C 4.66 g/m*3 16.47 C 0 km/h
122 02-05-2007 00:00:00 16.09167 C 3.81 g/m*3 16.09 C 0 km/h
123 03-05-2007 00:00:00 17.355 C 5.15 g/m*3 17.36 C 0 km/h
124 04-05-2007 00:00:00 18.835 C 5.97 g/m*3 18.84 C 0 km/h
125 05-05-2007 00:00:00 17.5975 C 6.18 g/m*3 17.6 C 0 km/h
Sensor: Nr:Datum:Temp:Abs-Feuchte:Windchill:Wind:
Aussen-T/F 126 06-05-2007 00:00:00 16.51167 C 7.41 g/m*3 16.51 C 0 km/h
127 07-05-2007 00:00:00 15.5625 C 8.64 g/m*3 15.56 C 0 km/h
128 08-05-2007 00:00:00 14.1825 C 7.73 g/m*3 14.18 C 0 km/h
129 09-05-2007 00:00:00 12.76917 C 8.87 g/m*3 12.77 C 0 km/h
130 10-05-2007 00:00:00 17.70667 C 8.53 g/m*3 17.71 C 0 km/h
131 11-05-2007 00:00:00 15.535 C 6.56 g/m*3 15.54 C 0 km/h
132 12-05-2007 00:00:00 15.02689 C 7.96 g/m*3 15.03 C 0 km/h
133 13-05-2007 00:00:00 17.04333 C 8.98 g/m*3 17.04 C 0 km/h
134 14-05-2007 00:00:00 15.98917 C 7.81 g/m*3 15.99 C 0 km/h
135 15-05-2007 00:00:00 13.36917 C 7.46 g/m*3 13.37 C 0 km/h
136 16-05-2007 00:00:00 12.17917 C 7.6 g/m*3 12.18 C 0 km/h
137 17-05-2007 00:00:00 10.8525 C 7.97 g/m*3 10.85 C 0 km/h
138 18-05-2007 00:00:00 14.6325 C 8.23 g/m*3 14.63 C 0 km/h
139 19-05-2007 00:00:00 18.53583 C 10.39 g/m*3 18.54 C 0 km/h
140 20-05-2007 00:00:00 21.92667 C 9.73 g/m*3 21.93 C 0 km/h
141 21-05-2007 00:00:00 22.61667 C 11.44 g/m*3 22.62 C 0 km/h
142 22-05-2007 00:00:00 22.86667 C 11.78 g/m*3 22.87 C 0 km/h
143 23-05-2007 00:00:00 20.8675 C 11.32 g/m*3 20.87 C 0 km/h
144 24-05-2007 00:00:00 23.91417 C 11.42 g/m*3 23.91 C 0 km/h
145 25-05-2007 00:00:00 24.57059 C 11.78 g/m*3 24.57 C 0 km/h
146 26-05-2007 00:00:00 21.745 C 12.71 g/m*3 21.75 C 0 km/h
147 27-05-2007 00:00:00 17.5125 C 9.85 g/m*3 17.51 C 0 km/h
148 28-05-2007 00:00:00 12.24917 C 8.51 g/m*3 12.25 C 0 km/h
149 29-05-2007 00:00:00 11.033 C 7.93 g/m*3 11.03 C 0 km/h
150 30-05-2007 00:00:00 13.67465 C 6.29 g/m*3 13.67 C 0 km/h
Sensor: Nr:Datum:Temp:Abs-Feuchte:Windchill:Wind:
Aussen-T/F 151 31-05-2007 00:00:00 16.05139 C 8.28 g/m*3 16.05 C 0 km/h
152 01-06-2007 00:00:00 15.42361 C 9.57 g/m*3 15.42 C 0 km/h
153 02-06-2007 00:00:00 18.53611 C 9.82 g/m*3 18.54 C 0 km/h
154 03-06-2007 00:00:00 20.87083 C 10.1 g/m*3 20.87 C 0 km/h
155 04-06-2007 00:00:00 22.02361 C 10.59 g/m*3 22.02 C 0 km/h
156 05-06-2007 00:00:00 21.66389 C 10.23 g/m*3 21.66 C 0 km/h
157 06-06-2007 00:00:00 22.53889 C 10.59 g/m*3 22.54 C 0 km/h
158 07-06-2007 00:00:00 25.42222 C 11.36 g/m*3 25.42 C 0 km/h
159 08-06-2007 00:00:00 26.47639 C 11.42 g/m*3 26.48 C 0 km/h
160 09-06-2007 00:00:00 23.12917 C 12.28 g/m*3 23.13 C 0 km/h
161 10-06-2007 00:00:00 21.28889 C 12.55 g/m*3 21.29 C 0 km/h
162 11-06-2007 00:00:00 21.88068 C 11.9 g/m*3 21.88 C 0 km/h
163 12-06-2007 00:00:00 20.17167 C 11.8 g/m*3 20.17 C 0 km/h
164 13-06-2007 00:00:00 21.51176 C 10.38 g/m*3 21.51 C 0 km/h
165 14-06-2007 00:00:00 22.15833 C 12.13 g/m*3 22.16 C 0 km/h
166 15-06-2007 00:00:00 19.84667 C 11.6 g/m*3 19.85 C 0 km/h
167 16-06-2007 00:00:00 18.0125 C 9.3 g/m*3 18.01 C 0 km/h
168 17-06-2007 00:00:00 20.0125 C 9.63 g/m*3 20.01 C 0 km/h
169 18-06-2007 00:00:00 20.92583 C 11.23 g/m*3 20.93 C 0 km/h
170 19-06-2007 00:00:00 23.70833 C 11.18 g/m*3 23.71 C 0 km/h
171 20-06-2007 00:00:00 23.68667 C 12.04 g/m*3 23.69 C 0 km/h
172 21-06-2007 00:00:00 18.30167 C 12.42 g/m*3 18.3 C 0 km/h
173 22-06-2007 00:00:00 16.06417 C 10.95 g/m*3 16.06 C 0 km/h
174 23-06-2007 00:00:00 16.04167 C 10.56 g/m*3 16.04 C 0 km/h
175 24-06-2007 00:00:00 19.31667 C 10.02 g/m*3 19.32 C 0 km/h
Sensor: Nr:Datum:Temp:Abs-Feuchte:Windchill:Wind:
Aussen-T/F 176 25-06-2007 00:00:00 18.13667 C 10.86 g/m*3 18.14 C 0 km/h
177 26-06-2007 00:00:00 13.90667 C 8.35 g/m*3 13.91 C 0 km/h
178 27-06-2007 00:00:00 14.2225 C 6.63 g/m*3 14.22 C 0 km/h
179 28-06-2007 00:00:00 15.82833 C 7.44 g/m*3 15.83 C 0 km/h
180 29-06-2007 00:00:00 16.88417 C 8.32 g/m*3 16.88 C 0 km/h
181 30-06-2007 00:00:00 18.675 C 9.69 g/m*3 18.68 C 0 km/h
182 01-07-2007 00:00:00 20.8525 C 10.65 g/m*3 20.85 C 0 km/h
183 02-07-2007 00:00:00 19.54917 C 10.43 g/m*3 19.55 C 0 km/h
184 03-07-2007 00:00:00 15.42583 C 9.84 g/m*3 15.43 C 0 km/h
185 04-07-2007 00:00:00 15.17417 C 8.93 g/m*3 15.17 C 0 km/h
186 05-07-2007 00:00:00 15.1325 C 9.55 g/m*3 15.13 C 0 km/h
187 06-07-2007 00:00:00 17.63613 C 8.26 g/m*3 17.64 C 0 km/h
188 07-07-2007 00:00:00 18.55167 C 7.14 g/m*3 18.55 C 0 km/h
189 08-07-2007 00:00:00 19.8175 C 8.32 g/m*3 19.82 C 0 km/h
190 09-07-2007 00:00:00 17.15583 C 9.38 g/m*3 17.16 C 0 km/h
191 10-07-2007 00:00:00 14.66583 C 9.37 g/m*3 14.67 C 0 km/h
192 11-07-2007 00:00:00 14.37833 C 9.44 g/m*3 14.38 C 0 km/h
193 12-07-2007 00:00:00 17.7 C 9.66 g/m*3 17.7 C 0 km/h
194 13-07-2007 00:00:00 22.43167 C 11.88 g/m*3 22.43 C 0 km/h
195 14-07-2007 00:00:00 25.05 C 11.69 g/m*3 25.05 C 0 km/h
196 15-07-2007 00:00:00 27.2075 C 11.44 g/m*3 27.21 C 0 km/h
197 16-07-2007 00:00:00 26.8025 C 8.93 g/m*3 26.8 C 0 km/h
198 17-07-2007 00:00:00 25.11167 C 8.56 g/m*3 25.11 C 0 km/h
199 18-07-2007 00:00:00 22.78 C 9.2 g/m*3 22.78 C 0 km/h
200 19-07-2007 00:00:00 20.29333 C 11.02 g/m*3 20.29 C 0 km/h
Sensor: Nr:Datum:Temp:Abs-Feuchte:Windchill:Wind:
Aussen-T/F 201 20-07-2007 00:00:00 22.04917 C 12.14 g/m*3 22.05 C 0 km/h
202 21-07-2007 00:00:00 19.74917 C 9.69 g/m*3 19.75 C 0 km/h
203 22-07-2007 00:00:00 19.89917 C 8.33 g/m*3 19.9 C 0 km/h
204 23-07-2007 00:00:00 16.33333 C 10.14 g/m*3 16.33 C 0 km/h
205 24-07-2007 00:00:00 16.72667 C 9.48 g/m*3 16.73 C 0 km/h
206 25-07-2007 00:00:00 19.68571 C 8.82 g/m*3 19.69 C 0 km/h
207 26-07-2007 00:00:00 21.75583 C 9.38 g/m*3 21.76 C 0 km/h
208 27-07-2007 00:00:00 22.4675 C 8.25 g/m*3 22.47 C 0 km/h
209 28-07-2007 00:00:00 21.095 C 10.2 g/m*3 21.1 C 0 km/h
210 29-07-2007 00:00:00 17.3075 C 9.52 g/m*3 17.31 C 0 km/h
211 30-07-2007 00:00:00 14.66167 C 6.94 g/m*3 14.66 C 0 km/h
212 31-07-2007 00:00:00 15.68167 C 6.71 g/m*3 15.68 C 0 km/h
213 01-08-2007 00:00:00 18.53833 C 7.48 g/m*3 18.54 C 0 km/h
214 02-08-2007 00:00:00 18.3275 C 9.54 g/m*3 18.33 C 0 km/h
215 03-08-2007 00:00:00 19.78083 C 8.92 g/m*3 19.78 C 0 km/h
216 04-08-2007 00:00:00 21.05 C 8.85 g/m*3 21.05 C 0 km/h
217 05-08-2007 00:00:00 23.69833 C 9.12 g/m*3 23.7 C 0 km/h
218 06-08-2007 00:00:00 24.23417 C 9.32 g/m*3 24.23 C 0 km/h
219 07-08-2007 00:00:00 18.36167 C 12.63 g/m*3 18.36 C 0 km/h
220 08-08-2007 00:00:00 16.0175 C 11.01 g/m*3 16.02 C 0 km/h
221 09-08-2007 00:00:00 14.26667 C 11.55 g/m*3 14.27 C 0 km/h
222 10-08-2007 00:00:00 17.82833 C 13.5 g/m*3 17.83 C 0 km/h
223 11-08-2007 00:00:00 19.64083 C 11.07 g/m*3 19.64 C 0 km/h
224 12-08-2007 00:00:00 20.07417 C 10.09 g/m*3 20.07 C 0 km/h
225 13-08-2007 00:00:00 20.9175 C 10.13 g/m*3 20.92 C 0 km/h
Sensor: Nr:Datum:Temp:Abs-Feuchte:Windchill:Wind:
Aussen-T/F 226 14-08-2007 00:00:00 20.9275 C 9.64 g/m*3 20.93 C 0 km/h
227 15-08-2007 00:00:00 23.49917 C 12.92 g/m*3 23.5 C 0 km/h
228 16-08-2007 00:00:00 18.74667 C 10.51 g/m*3 18.75 C 0 km/h
229 17-08-2007 00:00:00 17.27833 C 8.08 g/m*3 17.28 C 0 km/h
230 18-08-2007 00:00:00 17.40917 C 8.03 g/m*3 17.41 C 0 km/h
231 19-08-2007 00:00:00 17.24583 C 9.91 g/m*3 17.25 C 0 km/h
232 20-08-2007 00:00:00 17.315 C 9.7 g/m*3 17.32 C 0 km/h
233 21-08-2007 00:00:00 15.4225 C 10.31 g/m*3 15.42 C 0 km/h
234 22-08-2007 00:00:00 15.95593 C 11.84 g/m*3 15.96 C 0 km/h
235 23-08-2007 00:00:00 17.7575 C 11.98 g/m*3 17.76 C 0 km/h
236 24-08-2007 00:00:00 19.43833 C 11.56 g/m*3 19.44 C 0 km/h
237 25-08-2007 00:00:00 21.42 C 11.91 g/m*3 21.42 C 0 km/h
238 26-08-2007 00:00:00 21.99167 C 12.1 g/m*3 21.99 C 0 km/h
239 27-08-2007 00:00:00 19.53583 C 8.84 g/m*3 19.54 C 0 km/h
240 28-08-2007 00:00:00 16.42167 C 8.1 g/m*3 16.42 C 0 km/h
241 29-08-2007 00:00:00 17.285 C 6.71 g/m*3 17.29 C 0 km/h
242 30-08-2007 00:00:00 15.3675 C 7.01 g/m*3 15.37 C 0 km/h
243 31-08-2007 00:00:00 17.5825 C 9.89 g/m*3 17.58 C 0 km/h
244 01-09-2007 00:00:00 17.1975 C 10.01 g/m*3 17.2 C 0 km/h
245 02-09-2007 00:00:00 17.35583 C 9 g/m*3 17.36 C 0 km/h
246 03-09-2007 00:00:00 15.74917 C 9.08 g/m*3 15.75 C 0 km/h
247 04-09-2007 00:00:00 12.88417 C 7.04 g/m*3 12.88 C 0 km/h
248 05-09-2007 00:00:00 12.6395 C 6.92 g/m*3 12.64 C 0 km/h
249 06-09-2007 00:00:00 15.00917 C 9.43 g/m*3 15.01 C 0 km/h
250 07-09-2007 00:00:00 15.9325 C 9.22 g/m*3 15.93 C 0 km/h
Sensor: Nr:Datum:Temp:Abs-Feuchte:Windchill:Wind:
Aussen-T/F 251 08-09-2007 00:00:00 15.13667 C 10.05 g/m*3 15.14 C 0 km/h
252 09-09-2007 00:00:00 15.125 C 9.17 g/m*3 15.13 C 0 km/h
253 10-09-2007 00:00:00 12.4075 C 8.68 g/m*3 12.41 C 0 km/h
254 11-09-2007 00:00:00 14.36833 C 8.61 g/m*3 14.37 C 0 km/h
255 12-09-2007 00:00:00 14.94417 C 8.54 g/m*3 14.94 C 0 km/h
256 13-09-2007 00:00:00 14.5175 C 8.49 g/m*3 14.52 C 0 km/h
257 14-09-2007 00:00:00 15.68417 C 8.62 g/m*3 15.68 C 0 km/h
258 15-09-2007 00:00:00 16.86917 C 8.24 g/m*3 16.87 C 0 km/h
259 16-09-2007 00:00:00 15.27 C 8.22 g/m*3 15.27 C 0 km/h
260 17-09-2007 00:00:00 16.68833 C 10.1 g/m*3 16.69 C 0 km/h
261 18-09-2007 00:00:00 11.46833 C 8.27 g/m*3 11.47 C 0 km/h
262 19-09-2007 00:00:00 10.3275 C 6.41 g/m*3 10.33 C 0 km/h
263 20-09-2007 00:00:00 13.68083 C 7.03 g/m*3 13.68 C 0 km/h
264 21-09-2007 00:00:00 14.35833 C 7.71 g/m*3 14.36 C 0 km/h
265 22-09-2007 00:00:00 15.97583 C 8.74 g/m*3 15.98 C 0 km/h
266 23-09-2007 00:00:00 17.80333 C 9.5 g/m*3 17.8 C 0 km/h
267 24-09-2007 00:00:00 16.95833 C 9.49 g/m*3 16.96 C 0 km/h
268 25-09-2007 00:00:00 12.91917 C 7.71 g/m*3 12.92 C 0 km/h
269 26-09-2007 00:00:00 12.2675 C 7.86 g/m*3 12.27 C 0 km/h
270 27-09-2007 00:00:00 10.19083 C 8.85 g/m*3 10.19 C 0 km/h
271 28-09-2007 00:00:00 12.50168 C 8.71 g/m*3 12.5 C 0 km/h
272 29-09-2007 00:00:00 13.54444 C 8.6 g/m*3 13.54 C 0 km/h
273 30-09-2007 00:00:00 14.59687 C 9.12 g/m*3 14.6 C 0 km/h
274 01-10-2007 00:00:00 14.70313 C 9.71 g/m*3 14.7 C 0 km/h
275 02-10-2007 00:00:00 17.235 C 11.49 g/m*3 17.24 C 0 km/h
Sensor: Nr:Datum:Temp:Abs-Feuchte:Windchill:Wind:
Aussen-T/F 276 03-10-2007 00:00:00 17.39188 C 11.47 g/m*3 17.39 C 0 km/h
277 04-10-2007 00:00:00 17.33653 C 11.53 g/m*3 17.34 C 0 km/h
278 05-10-2007 00:00:00 15.50646 C 8.72 g/m*3 15.51 C 0 km/h
279 06-10-2007 00:00:00 12.34042 C 7.59 g/m*3 12.34 C 0 km/h
280 07-10-2007 00:00:00 11.60813 C 7.69 g/m*3 11.61 C 0 km/h
281 08-10-2007 00:00:00 10.74021 C 7.53 g/m*3 10.74 C 0 km/h
282 09-10-2007 00:00:00 12.05052 C 8.1 g/m*3 12.05 C 0 km/h
283 10-10-2007 00:00:00 14.53875 C 8.04 g/m*3 14.54 C 0 km/h
284 11-10-2007 00:00:00 11.52958 C 7.34 g/m*3 11.53 C 0 km/h
285 12-10-2007 00:00:00 12.23271 C 8.24 g/m*3 12.23 C 0 km/h
286 13-10-2007 00:00:00 13.96146 C 7.82 g/m*3 13.96 C 0 km/h
287 14-10-2007 00:00:00 9.94958 C 6.47 g/m*3 9.95 C 0 km/h
288 15-10-2007 00:00:00 10.725 C 7.35 g/m*3 10.73 C 0 km/h
289 16-10-2007 00:00:00 13.70417 C 8.35 g/m*3 13.7 C 0 km/h
290 17-10-2007 00:00:00 11.78601 C 8.39 g/m*3 11.79 C 0 km/h
291 18-10-2007 00:00:00 9.70042 C 6.45 g/m*3 9.7 C 0 km/h
292 19-10-2007 00:00:00 7.65667 C 6.17 g/m*3 7.66 C 0 km/h
293 20-10-2007 00:00:00 3.38583 C 5.54 g/m*3 3.39 C 0 km/h
294 24-10-2007 00:00:00 7.63803 C 5.69 g/m*3 7.64 C 0 km/h
295 25-10-2007 00:00:00 8.51042 C 6.26 g/m*3 8.51 C 0 km/h
296 26-10-2007 00:00:00 8.8712 C 6.03 g/m*3 8.87 C 0 km/h
297 27-10-2007 00:00:00 8.5725 C 5.85 g/m*3 8.57 C 0 km/h
298 28-10-2007 00:00:00 9.1632 C 5.9 g/m*3 9.16 C 0 km/h
299 29-10-2007 00:00:00 8.77833 C 7.07 g/m*3 8.78 C 0 km/h
300 30-10-2007 00:00:00 8.70333 C 7.3 g/m*3 8.7 C 0 km/h
Sensor: Nr:Datum:Temp:Abs-Feuchte:Windchill:Wind:
Aussen-T/F 301 31-10-2007 00:00:00 6.43333 C 6.44 g/m*3 6.43 C 0 km/h
302 01-11-2007 00:00:00 5.77833 C 6.04 g/m*3 5.78 C 0 km/h
303 02-11-2007 00:00:00 10.20333 C 8.52 g/m*3 10.2 C 0 km/h
304 03-11-2007 00:00:00 11.76723 C 9.64 g/m*3 11.77 C 0 km/h
305 04-11-2007 00:00:00 10.35 C 6.84 g/m*3 10.35 C 0 km/h
306 05-11-2007 00:00:00 8.61333 C 5.38 g/m*3 8.61 C 0 km/h
307 06-11-2007 00:00:00 8.1225 C 5.88 g/m*3 8.12 C 0 km/h
308 07-11-2007 00:00:00 8.495 C 6.13 g/m*3 8.49 C 0 km/h
309 08-11-2007 00:00:00 9.85667 C 7.21 g/m*3 9.86 C 0 km/h
310 09-11-2007 00:00:00 5.16167 C 5.11 g/m*3 5.16 C 0 km/h
311 10-11-2007 00:00:00 6.29083 C 5.92 g/m*3 6.29 C 0 km/h
312 11-11-2007 00:00:00 7.75917 C 6.67 g/m*3 7.76 C 0 km/h
313 12-11-2007 00:00:00 5.1475 C 4.79 g/m*3 5.15 C 0 km/h
314 13-11-2007 00:00:00 3.98167 C 5.14 g/m*3 3.98 C 0 km/h
315 14-11-2007 00:00:00 2.72417 C 4.37 g/m*3 2.72 C 0 km/h
316 15-11-2007 00:00:00 1.3425 C 3.82 g/m*3 1.34 C 0 km/h
317 16-11-2007 00:00:00 -0.59167 C 3.84 g/m*3 -0.59 C 0 km/h
318 17-11-2007 00:00:00 3.35714 C 4.68 g/m*3 3.36 C 0 km/h
319 18-11-2007 00:00:00 3.3825 C 4.91 g/m*3 3.38 C 0 km/h
320 19-11-2007 00:00:00 2.57333 C 4.34 g/m*3 2.57 C 0 km/h
321 20-11-2007 00:00:00 5.33 C 4.59 g/m*3 5.33 C 0 km/h
322 21-11-2007 00:00:00 6.755 C 5.66 g/m*3 6.76 C 0 km/h
323 22-11-2007 00:00:00 7.93917 C 6.65 g/m*3 7.94 C 0 km/h
324 23-11-2007 00:00:00 6.7275 C 6.81 g/m*3 6.73 C 0 km/h
325 24-11-2007 00:00:00 2.76833 C 4.82 g/m*3 2.77 C 0 km/h
Sensor: Nr:Datum:Temp:Abs-Feuchte:Windchill:Wind:
Aussen-T/F 326 25-11-2007 00:00:00 4.25167 C 5.29 g/m*3 4.25 C 0 km/h
327 26-11-2007 00:00:00 3.9725 C 4.66 g/m*3 3.97 C 0 km/h
328 27-11-2007 00:00:00 4.23833 C 4.68 g/m*3 4.24 C 0 km/h
329 28-11-2007 00:00:00 0.0625 C 4.32 g/m*3 0.06 C 0 km/h
330 29-11-2007 00:00:00 1.3325 C 4.59 g/m*3 1.33 C 0 km/h
331 30-11-2007 00:00:00 5.76 C 5.7 g/m*3 5.76 C 0 km/h
332 01-12-2007 00:00:00 8.51345 C 5.82 g/m*3 8.51 C 0 km/h
333 02-12-2007 00:00:00 9.13667 C 6.27 g/m*3 9.14 C 0 km/h
334 03-12-2007 00:00:00 7.21167 C 4.97 g/m*3 7.21 C 0 km/h
335 04-12-2007 00:00:00 5.77583 C 5.61 g/m*3 5.78 C 0 km/h
336 05-12-2007 00:00:00 10.11667 C 7.2 g/m*3 10.12 C 0 km/h
337 06-12-2007 00:00:00 9.85667 C 6.67 g/m*3 9.86 C 0 km/h
338 07-12-2007 00:00:00 10.3625 C 6.09 g/m*3 10.36 C 0 km/h
339 08-12-2007 00:00:00 5.77917 C 4.69 g/m*3 5.78 C 0 km/h
340 09-12-2007 00:00:00 7.00333 C 5.75 g/m*3 7 C 0 km/h
341 10-12-2007 00:00:00 6.24167 C 6.16 g/m*3 6.24 C 0 km/h
342 11-12-2007 00:00:00 5.6775 C 5.39 g/m*3 5.68 C 0 km/h
343 12-12-2007 00:00:00 4.92417 C 5 g/m*3 4.92 C 0 km/h
344 13-12-2007 00:00:00 5.2125 C 4.36 g/m*3 5.21 C 0 km/h
345 14-12-2007 00:00:00 2.35798 C 2.96 g/m*3 2.36 C 0 km/h
346 15-12-2007 00:00:00 0.0325 C 2.86 g/m*3 0.03 C 0 km/h
347 16-12-2007 00:00:00 -2.92417 C 2.98 g/m*3 -2.92 C 0 km/h
348 17-12-2007 00:00:00 -1.06 C 2.85 g/m*3 -1.06 C 0 km/h
349 18-12-2007 00:00:00 -2.50833 C 3.14 g/m*3 -2.51 C 0 km/h
350 19-12-2007 00:00:00 -3.8675 C 3.09 g/m*3 -3.87 C 0 km/h
Sensor: Nr:Datum:Temp:Abs-Feuchte:Windchill:Wind:
Aussen-T/F 351 20-12-2007 00:00:00 -5.26417 C 2.9 g/m*3 -5.26 C 0 km/h
352 21-12-2007 00:00:00 -5.9625 C 2.72 g/m*3 -5.96 C 0 km/h
353 22-12-2007 00:00:00 -7.21833 C 2.43 g/m*3 -7.22 C 0 km/h
354 23-12-2007 00:00:00 -5.47333 C 2.81 g/m*3 -5.47 C 0 km/h
355 24-12-2007 00:00:00 -1.28333 C 4.01 g/m*3 -1.28 C 0 km/h
356 25-12-2007 00:00:00 -3.13917 C 3.2 g/m*3 -3.14 C 0 km/h
357 26-12-2007 00:00:00 -1.31513 C 3.83 g/m*3 -1.32 C 0 km/h
358 27-12-2007 00:00:00 2.63917 C 4.81 g/m*3 2.64 C 0 km/h
359 28-12-2007 00:00:00 4.575 C 5.27 g/m*3 4.58 C 0 km/h
360 29-12-2007 00:00:00 3.32667 C 4.84 g/m*3 3.33 C 0 km/h
361 30-12-2007 00:00:00 4.99167 C 5.24 g/m*3 4.99 C 0 km/h
362 31-12-2007 00:00:00 3.21667 C 5.19 g/m*3 3.22 C 0 km/h

Maximal/Minimal-Werte vom 01.01.2007 - 31.12.2007

Sensor Min Max Avg
Temp
(Aussen-T/F)
-9.3 °C
22-12-2007  08:56:02
35.2 °C
15-07-2007  17:40:02
11.99 °C
Abs-Feuchte
(Aussen-T/F)
1.21 g/m*3
23-01-2007  00:00:00
13.5 g/m*3
10-08-2007  00:00:00
7.13 g/m*3
Windchill
(Aussen-T/F)
-7.22 C
22-12-2007  00:00:00
27.21 C
15-07-2007  00:00:00
12.06 C

Die Daten stammen von einer Davis Vantage Pro 2 Wetter-Station und werden unter Linux mit der Software wview2wettercgi und aufbereitet. Alle Angaben erfolgen ohne Gewähr für ihre Vollständigkeit oder Richtigkeit.
Kontakt: Rainer Krienke krienke@uni-koblenz.de . Meine Webseiten an der Uni Koblenz oder privat.
Version: $Revision: 0.78 $